Time;durP1;ratioP1;P1;durP2;ratioP2;P2;SDS_P1;SDS_P2;PMS_P1;PMS_P2;Temp;Humidity;BMP_temperature;BMP_pressure;BME280_temperature;BME280_humidity;BME280_pressure;Samples;Min_cycle;Max_cycle;Signal;HPM_P1;HPM_P2
2023/01/15 00:03:01;;;;;;;9.40;1.80;;;;;7.40;99493.00;;;;10368232;28;20218;-78
2023/01/15 00:08:04;;;;;;;6.80;1.57;;;;;7.40;99496.00;;;;10336474;28;20212;-78
2023/01/15 00:13:06;;;;;;;5.17;1.10;;;;;7.40;99500.00;;;;10369432;28;20211;-78
2023/01/15 00:18:08;;;;;;;5.13;1.93;;;;;7.50;99481.00;;;;10335851;28;20196;-78
2023/01/15 00:27:37;;;;;;;5.40;1.50;;;;;7.40;99483.00;;;;10367241;28;20590;-78
2023/01/15 00:28:31;;;;;;;4.33;1.10;;;;;7.40;99508.00;;;;10354868;28;20216;-78
2023/01/15 00:33:33;;;;;;;4.50;1.20;;;;;7.40;99505.00;;;;10343195;28;20196;-78
2023/01/15 00:38:35;;;;;;;7.13;1.63;;;;;7.40;99505.00;;;;10336137;28;20638;-78
2023/01/15 00:43:37;;;;;;;5.57;1.23;;;;;7.40;99504.00;;;;10361727;28;20650;-78
2023/01/15 00:48:40;;;;;;;7.53;1.63;;;;;7.40;99498.00;;;;10372690;28;20196;-78
2023/01/15 00:53:42;;;;;;;5.07;1.53;;;;;7.40;99501.00;;;;10365232;28;20192;-78
2023/01/15 00:58:45;;;;;;;8.13;1.83;;;;;7.40;99493.00;;;;10342266;28;20671;-78
2023/01/15 01:03:51;;;;;;;6.77;1.23;;;;;7.50;99505.00;;;;10334118;28;20226;-78
2023/01/15 01:08:53;;;;;;;11.10;1.60;;;;;7.50;99519.00;;;;10340476;28;20707;-78
2023/01/15 01:13:55;;;;;;;5.33;1.73;;;;;7.40;99505.00;;;;10355255;28;20234;-78
2023/01/15 01:19:00;;;;;;;3.00;1.43;;;;;7.40;99506.00;;;;10342043;28;20279;-78
2023/01/15 01:24:02;;;;;;;8.47;1.60;;;;;7.40;99521.00;;;;10341148;28;20294;-78
2023/01/15 01:29:04;;;;;;;4.93;1.10;;;;;7.40;99521.00;;;;10338838;28;20270;-78
2023/01/15 01:34:08;;;;;;;7.20;1.37;;;;;7.30;99506.00;;;;10355982;28;20245;-78
2023/01/15 01:39:15;;;;;;;5.73;1.00;;;;;7.30;99510.00;;;;10368134;28;20283;-78
2023/01/15 01:44:32;;;;;;;4.13;0.87;;;;;7.30;99512.00;;;;10346875;28;20647;-78
2023/01/15 01:49:38;;;;;;;8.87;1.60;;;;;7.30;99509.00;;;;10371711;28;20797;-78
2023/01/15 01:54:40;;;;;;;11.77;1.40;;;;;7.20;99518.00;;;;10366262;28;20191;-78
2023/01/15 01:59:43;;;;;;;7.33;1.60;;;;;7.20;99521.00;;;;10358701;28;20214;-78
2023/01/15 02:04:45;;;;;;;5.53;1.10;;;;;7.20;99518.00;;;;10360139;28;20729;-78
2023/01/15 02:09:47;;;;;;;6.87;1.47;;;;;7.20;99511.00;;;;10337115;28;20200;-78
2023/01/15 02:14:57;;;;;;;10.30;2.23;;;;;7.20;99495.00;;;;10357016;28;20681;-78
2023/01/15 02:20:14;;;;;;;4.90;1.27;;;;;7.10;99510.00;;;;10374700;28;20595;-78
2023/01/15 02:25:40;;;;;;;10.60;1.77;;;;;7.10;99496.00;;;;10364806;28;20226;-78
2023/01/15 02:30:52;;;;;;;10.13;1.23;;;;;7.00;99481.00;;;;10337072;28;20280;-79
2023/01/15 02:35:59;;;;;;;6.63;1.20;;;;;6.90;99498.00;;;;10326108;28;20246;-78
2023/01/15 02:41:15;;;;;;;5.17;1.10;;;;;6.90;99477.00;;;;10357584;28;20241;-78
2023/01/15 02:46:21;;;;;;;6.47;0.87;;;;;6.90;99484.00;;;;10350703;28;20215;-79
2023/01/15 02:51:30;;;;;;;12.10;2.00;;;;;6.80;99484.00;;;;10371866;28;20200;-78
2023/01/15 02:56:34;;;;;;;5.67;0.90;;;;;6.80;99495.00;;;;10340283;28;20193;-78
2023/01/15 03:01:44;;;;;;;9.67;1.23;;;;;6.80;99495.00;;;;10332776;28;20196;-78
2023/01/15 03:07:22;;;;;;;4.73;1.37;;;;;6.80;99498.00;;;;10367790;28;20653;-78
2023/01/15 03:12:33;;;;;;;2.07;0.97;;;;;6.80;99497.00;;;;10355627;28;20223;-78
2023/01/15 03:17:54;;;;;;;3.20;1.07;;;;;6.70;99493.00;;;;10317157;28;20188;-78
2023/01/15 03:23:03;;;;;;;11.00;1.57;;;;;6.70;99492.00;;;;10315578;28;20192;-78
2023/01/15 03:28:07;;;;;;;7.77;0.93;;;;;6.70;99513.00;;;;10348856;28;20212;-78
2023/01/15 03:33:10;;;;;;;9.13;1.30;;;;;6.70;99497.00;;;;10342440;28;20203;-78
2023/01/15 03:38:17;;;;;;;5.13;1.07;;;;;6.70;99495.00;;;;10364651;28;20287;-78
2023/01/15 03:43:42;;;;;;;3.47;1.13;;;;;6.70;99509.00;;;;10325005;28;20192;-78
2023/01/15 03:49:12;;;;;;;4.87;1.10;;;;;6.60;99511.00;;;;10374346;28;20207;-79
2023/01/15 03:54:25;;;;;;;6.80;1.10;;;;;6.60;99507.00;;;;10334263;28;20227;-78
2023/01/15 03:59:36;;;;;;;8.27;1.33;;;;;6.60;99502.00;;;;10339210;28;20359;-78
2023/01/15 04:04:39;;;;;;;9.90;1.30;;;;;6.50;99512.00;;;;10351503;28;20206;-79
2023/01/15 04:09:41;;;;;;;8.33;1.07;;;;;6.50;99505.00;;;;10336565;28;20203;-78
2023/01/15 04:14:46;;;;;;;3.40;0.73;;;;;6.40;99495.00;;;;10353140;28;20543;-78
2023/01/15 04:19:54;;;;;;;4.07;1.23;;;;;6.40;99491.00;;;;10369943;28;20582;-78
2023/01/15 04:24:58;;;;;;;6.53;1.20;;;;;6.40;99509.00;;;;10328844;28;20215;-78
2023/01/15 04:30:00;;;;;;;6.67;0.90;;;;;6.40;99498.00;;;;10338064;28;20199;-78
2023/01/15 04:35:02;;;;;;;3.53;1.13;;;;;6.40;99514.00;;;;10337710;28;20184;-78
2023/01/15 04:40:05;;;;;;;4.40;0.80;;;;;6.40;99527.00;;;;10353982;28;20191;-78
2023/01/15 04:45:07;;;;;;;6.63;0.97;;;;;6.40;99525.00;;;;10389847;28;20199;-78
2023/01/15 04:50:10;;;;;;;3.60;1.07;;;;;6.40;99522.00;;;;10326686;28;20713;-78
2023/01/15 04:55:11;;;;;;;3.57;1.20;;;;;6.40;99524.00;;;;10343355;28;20279;-78
2023/01/15 05:00:14;;;;;;;5.77;1.13;;;;;6.40;99526.00;;;;10350467;28;20206;-79
2023/01/15 05:05:16;;;;;;;2.17;0.80;;;;;6.40;99517.00;;;;10342653;28;20295;-78
2023/01/15 05:10:18;;;;;;;2.47;0.80;;;;;6.30;99493.00;;;;10352777;28;20321;-78
2023/01/15 05:15:20;;;;;;;7.13;0.90;;;;;6.30;99491.00;;;;10366020;28;20202;-78
2023/01/15 05:20:22;;;;;;;4.03;0.93;;;;;6.30;99501.00;;;;10336276;28;20188;-78
2023/01/15 05:25:24;;;;;;;3.90;0.90;;;;;6.30;99504.00;;;;10350453;28;20214;-79
2023/01/15 05:30:26;;;;;;;3.67;0.67;;;;;6.30;99495.00;;;;10408894;28;20195;-78
2023/01/15 05:35:28;;;;;;;8.27;1.10;;;;;6.20;99497.00;;;;10362922;28;20200;-78
2023/01/15 05:40:29;;;;;;;6.67;0.83;;;;;6.20;99482.00;;;;10335560;28;20206;-78
2023/01/15 05:45:34;;;;;;;4.13;1.03;;;;;6.10;99480.00;;;;10372872;28;20199;-78
2023/01/15 05:50:36;;;;;;;5.47;1.47;;;;;6.10;99497.00;;;;10409329;28;20194;-78
2023/01/15 05:55:38;;;;;;;3.63;1.13;;;;;6.10;99520.00;;;;10375693;28;20233;-79
2023/01/15 06:00:40;;;;;;;5.10;0.70;;;;;6.00;99513.00;;;;10374938;28;20195;-78
2023/01/15 06:05:42;;;;;;;7.30;0.60;;;;;5.70;99549.00;;;;10391143;28;20237;-78
2023/01/15 06:10:45;;;;;;;3.20;0.57;;;;;5.30;99548.00;;;;10374517;28;20226;-78
2023/01/15 06:15:47;;;;;;;2.07;0.80;;;;;5.00;99543.00;;;;10377198;28;20783;-78
2023/01/15 06:20:49;;;;;;;0.87;0.40;;;;;4.80;99554.00;;;;10375609;28;20191;-78
2023/01/15 06:25:51;;;;;;;2.13;0.93;;;;;4.70;99568.00;;;;10372673;28;20219;-78
2023/01/15 06:30:53;;;;;;;2.07;0.67;;;;;4.60;99551.00;;;;10367855;28;20199;-78
2023/01/15 06:35:54;;;;;;;8.80;0.80;;;;;4.60;99567.00;;;;10355817;28;20754;-78
2023/01/15 06:41:00;;;;;;;6.93;1.13;;;;;4.60;99556.00;;;;10346438;28;20203;-78
2023/01/15 06:51:23;;;;;;;1.83;0.70;;;;;4.70;99570.00;;;;10415601;28;20249;-78
2023/01/15 06:56:25;;;;;;;2.90;0.60;;;;;4.60;99569.00;;;;10364085;28;20214;-78
2023/01/15 07:01:29;;;;;;;4.47;0.50;;;;;4.50;99579.00;;;;10380030;28;20239;-78
2023/01/15 07:06:31;;;;;;;2.67;0.83;;;;;4.50;99579.00;;;;10380383;28;20238;-78
2023/01/15 07:11:33;;;;;;;2.97;0.90;;;;;4.50;99570.00;;;;10380332;28;20282;-78
2023/01/15 07:16:35;;;;;;;5.67;1.17;;;;;4.50;99582.00;;;;10383596;28;20195;-78
2023/01/15 07:21:38;;;;;;;4.87;1.07;;;;;4.50;99588.00;;;;10380415;28;20206;-78
2023/01/15 07:26:40;;;;;;;2.80;0.67;;;;;4.50;99597.00;;;;10395499;28;20222;-78
2023/01/15 07:31:42;;;;;;;3.30;0.80;;;;;4.60;99593.00;;;;10361512;28;20187;-78
2023/01/15 07:36:45;;;;;;;5.73;0.87;;;;;4.60;99588.00;;;;10380260;28;20661;-78
2023/01/15 07:52:40;;;;;;;5.13;0.90;;;;;4.70;99610.00;;;;10395014;28;20199;-78
2023/01/15 07:57:43;;;;;;;3.63;0.70;;;;;4.80;99617.00;;;;10379048;28;20195;-78
2023/01/15 08:02:48;;;;;;;5.97;1.30;;;;;4.80;99620.00;;;;10378564;28;20195;-78
2023/01/15 08:07:50;;;;;;;3.03;1.00;;;;;4.80;99636.00;;;;10362383;28;20894;-78
2023/01/15 08:18:15;;;;;;;3.30;0.93;;;;;4.90;99642.00;;;;10394681;28;20199;-78
2023/01/15 08:23:17;;;;;;;4.47;1.27;;;;;5.00;99628.00;;;;10377476;28;20190;-79
2023/01/15 08:28:19;;;;;;;6.27;1.17;;;;;5.20;99621.00;;;;10363702;28;20301;-78
2023/01/15 08:33:21;;;;;;;5.63;1.23;;;;;5.30;99626.00;;;;10362963;28;20194;-79
2023/01/15 08:38:23;;;;;;;3.20;0.73;;;;;5.40;99640.00;;;;10361312;28;20224;-79
2023/01/15 08:43:31;;;;;;;3.53;1.10;;;;;5.50;99640.00;;;;10379085;28;20187;-79
2023/01/15 08:48:33;;;;;;;8.73;0.90;;;;;5.60;99630.00;;;;10379025;28;20218;-78
2023/01/15 08:53:35;;;;;;;8.63;1.23;;;;;5.80;99614.00;;;;10375090;28;20195;-79
2023/01/15 08:58:37;;;;;;;7.60;1.33;;;;;6.00;99609.00;;;;10358396;28;20673;-79
2023/01/15 09:03:39;;;;;;;4.17;1.00;;;;;6.10;99612.00;;;;10392029;28;20187;-79
2023/01/15 09:08:41;;;;;;;5.87;1.20;;;;;6.40;99612.00;;;;10391928;28;20667;-79
2023/01/15 09:13:45;;;;;;;7.83;1.63;;;;;6.60;99612.00;;;;10362555;28;20665;-79
2023/01/15 09:18:47;;;;;;;3.80;1.10;;;;;6.90;99609.00;;;;10372030;28;20187;-79
2023/01/15 09:23:50;;;;;;;4.80;1.20;;;;;7.10;99642.00;;;;10375437;28;20205;-79
2023/01/15 09:28:52;;;;;;;5.23;1.20;;;;;7.30;99647.00;;;;10369345;28;20209;-78
2023/01/15 09:33:54;;;;;;;3.30;0.93;;;;;7.60;99645.00;;;;10370995;28;20539;-79
2023/01/15 09:38:58;;;;;;;8.93;1.93;;;;;7.90;99662.00;;;;10359242;28;20188;-79
2023/01/15 09:44:28;;;;;;;3.97;0.80;;;;;7.60;99691.00;;;;10349780;28;20252;-79
2023/01/15 09:49:45;;;;;;;7.13;1.17;;;;;7.40;99679.00;;;;10382552;28;20211;-79
2023/01/15 09:55:03;;;;;;;3.03;1.00;;;;;6.90;99683.00;;;;10358752;28;20276;-79
2023/01/15 10:00:10;;;;;;;2.97;1.07;;;;;6.70;99692.00;;;;10395915;28;20182;-79
2023/01/15 10:05:30;;;;;;;5.37;0.80;;;;;6.90;99714.00;;;;10333564;28;20400;-79
2023/01/15 10:11:00;;;;;;;2.57;0.60;;;;;6.60;99717.00;;;;10340706;28;20586;-79
2023/01/15 10:16:03;;;;;;;2.87;0.83;;;;;6.50;99717.00;;;;10376616;28;20297;-79
2023/01/15 10:21:12;;;;;;;3.57;0.73;;;;;6.30;99729.00;;;;10340083;28;20219;-79
2023/01/15 10:26:35;;;;;;;3.23;0.80;;;;;6.20;99718.00;;;;10385056;28;20207;-79
2023/01/15 10:31:47;;;;;;;4.20;0.80;;;;;6.10;99708.00;;;;10360763;28;20201;-79
2023/01/15 10:36:58;;;;;;;2.73;1.00;;;;;6.00;99697.00;;;;10380831;28;20267;-79
2023/01/15 10:42:03;;;;;;;5.50;0.90;;;;;6.60;99700.00;;;;10393909;28;20262;-79
2023/01/15 10:47:12;;;;;;;3.13;0.70;;;;;7.60;99702.00;;;;10434257;28;20217;-79
2023/01/15 10:52:24;;;;;;;1.67;0.70;;;;;8.00;99697.00;;;;10372789;28;20255;-79
2023/01/15 10:58:21;;;;;;;2.23;0.87;;;;;8.40;99688.00;;;;10376030;28;20194;-79
2023/01/15 11:03:34;;;;;;;2.10;0.70;;;;;8.80;99695.00;;;;10344699;28;20202;-79
2023/01/15 11:08:36;;;;;;;1.90;0.60;;;;;8.50;99699.00;;;;10381826;28;20221;-80
2023/01/15 11:19:38;;;;;;;4.93;1.10;;;;;8.90;99697.00;;;;10438594;28;20182;-79
2023/01/15 11:24:51;;;;;;;3.03;0.80;;;;;8.90;99693.00;;;;10422306;28;20612;-80
2023/01/15 11:29:58;;;;;;;2.80;1.03;;;;;8.50;99694.00;;;;10405663;28;20239;-79
2023/01/15 11:35:02;;;;;;;2.87;1.17;;;;;8.40;99695.00;;;;10373946;28;20204;-79
2023/01/15 11:40:05;;;;;;;2.90;0.97;;;;;8.90;99690.00;;;;10355929;28;20195;-79
2023/01/15 11:50:44;;;;;;;2.40;0.83;;;;;8.10;99704.00;;;;10413531;28;20217;-79
2023/01/15 11:55:59;;;;;;;4.70;1.70;;;;;7.90;99681.00;;;;10338994;28;20322;-79
2023/01/15 12:01:01;;;;;;;3.20;1.00;;;;;8.10;99675.00;;;;10339604;28;20198;-79
2023/01/15 12:06:08;;;;;;;3.27;0.87;;;;;8.30;99679.00;;;;10355963;28;20225;-80
2023/01/15 12:11:29;;;;;;;2.47;1.07;;;;;8.10;99694.00;;;;10339552;28;20227;-79
2023/01/15 12:17:05;;;;;;;5.37;0.90;;;;;7.90;99671.00;;;;10393848;28;20284;-79
2023/01/15 12:22:23;;;;;;;3.50;1.23;;;;;8.00;99677.00;;;;10400064;28;20221;-79
2023/01/15 12:27:42;;;;;;;5.53;1.10;;;;;7.90;99671.00;;;;10338722;28;20566;-79
2023/01/15 12:32:56;;;;;;;1.17;0.70;;;;;7.70;99663.00;;;;10361175;28;20201;-79
2023/01/15 12:38:22;;;;;;;4.07;1.47;;;;;7.30;99663.00;;;;10379061;28;20197;-79
2023/01/15 12:48:50;;;;;;;2.70;1.03;;;;;7.50;99652.00;;;;10420569;28;20233;-79
2023/01/15 12:53:59;;;;;;;5.53;1.30;;;;;7.90;99647.00;;;;10377948;28;20187;-78
2023/01/15 12:59:25;;;;;;;6.83;1.20;;;;;8.30;99657.00;;;;10361247;28;20238;-80
2023/01/15 13:04:53;;;;;;;2.83;1.33;;;;;8.30;99648.00;;;;10374502;28;20216;-79
2023/01/15 13:10:15;;;;;;;6.40;1.20;;;;;8.40;99646.00;;;;10352446;28;20548;-79
2023/01/15 13:15:20;;;;;;;4.10;1.53;;;;;8.50;99652.00;;;;10393322;28;20201;-79
2023/01/15 13:20:37;;;;;;;2.67;1.03;;;;;8.70;99652.00;;;;10418039;28;20699;-80
2023/01/15 13:25:51;;;;;;;4.23;1.10;;;;;8.40;99640.00;;;;10400860;28;20651;-79
2023/01/15 13:31:27;;;;;;;2.47;0.90;;;;;8.20;99641.00;;;;10381769;28;20233;-80
2023/01/15 13:36:40;;;;;;;1.23;0.83;;;;;8.10;99660.00;;;;10376503;28;20191;-79
2023/01/15 13:47:13;;;;;;;3.23;0.90;;;;;8.00;99669.00;;;;10417266;28;20210;-79
2023/01/15 13:52:26;;;;;;;2.30;1.00;;;;;7.50;99685.00;;;;10344242;28;20280;-79
2023/01/15 13:57:34;;;;;;;2.37;0.90;;;;;7.10;99680.00;;;;10313039;28;20195;-79
2023/01/15 14:02:37;;;;;;;1.87;0.90;;;;;6.60;99695.00;;;;10344755;28;20184;-79
2023/01/15 14:07:39;;;;;;;4.40;1.13;;;;;6.50;99687.00;;;;10343433;28;20223;-79
2023/01/15 14:13:12;;;;;;;2.27;1.00;;;;;6.50;99689.00;;;;10359610;28;20690;-79
2023/01/15 14:18:36;;;;;;;0.83;0.80;;;;;6.50;99683.00;;;;10343976;28;20172;-78
2023/01/15 14:24:02;;;;;;;1.63;1.00;;;;;6.60;99670.00;;;;10327574;28;20681;-79
2023/01/15 14:29:24;;;;;;;4.00;1.13;;;;;6.50;99672.00;;;;10342551;28;20207;-79
2023/01/15 14:34:32;;;;;;;4.20;1.20;;;;;6.40;99669.00;;;;10377433;28;20214;-79
2023/01/15 14:39:40;;;;;;;2.70;1.00;;;;;6.30;99666.00;;;;10398741;28;20202;-79
2023/01/15 14:44:44;;;;;;;4.37;0.97;;;;;6.30;99680.00;;;;10382865;28;20202;-79
2023/01/15 14:49:48;;;;;;;6.77;2.87;;;;;6.20;99681.00;;;;10374911;28;20216;-79
2023/01/15 14:54:52;;;;;;;4.40;1.07;;;;;6.30;99678.00;;;;10326222;28;20267;-79
2023/01/15 14:59:59;;;;;;;2.57;1.80;;;;;6.30;99700.00;;;;10341848;28;20211;-79
2023/01/15 15:05:07;;;;;;;7.20;3.37;;;;;6.10;99691.00;;;;10341233;28;20704;-78
2023/01/15 15:10:16;;;;;;;4.17;2.30;;;;;6.00;99701.00;;;;10341284;28;20224;-79
2023/01/15 15:15:32;;;;;;;3.87;2.17;;;;;5.90;99710.00;;;;10398254;28;20194;-79
2023/01/15 15:20:57;;;;;;;4.13;2.23;;;;;6.00;99712.00;;;;10422549;28;20625;-79
2023/01/15 15:26:02;;;;;;;5.50;1.83;;;;;6.00;99708.00;;;;10389868;28;20260;-79
2023/01/15 15:31:04;;;;;;;2.27;1.23;;;;;6.00;99699.00;;;;10386328;28;20723;-79
2023/01/15 15:36:07;;;;;;;4.67;1.90;;;;;5.90;99705.00;;;;10397623;28;20628;-79
2023/01/15 15:41:12;;;;;;;3.67;1.10;;;;;5.90;99701.00;;;;10381683;28;20282;-78
2023/01/15 15:51:49;;;;;;;0.60;0.60;;;;;5.70;99701.00;;;;10354810;28;20207;-78
2023/01/15 15:57:07;;;;;;;1.00;0.83;;;;;5.60;99703.00;;;;10355318;28;20262;-78
2023/01/15 16:02:17;;;;;;;2.90;1.10;;;;;5.60;99698.00;;;;10358955;28;20202;-78
2023/01/15 16:07:25;;;;;;;2.40;1.70;;;;;5.50;99700.00;;;;10378230;28;20199;-78
2023/01/15 16:12:30;;;;;;;2.50;1.20;;;;;5.40;99703.00;;;;10395180;28;20210;-78
2023/01/15 16:17:33;;;;;;;1.63;0.70;;;;;5.30;99695.00;;;;10417692;28;20186;-77
2023/01/15 16:22:35;;;;;;;3.43;0.70;;;;;5.20;99724.00;;;;10435027;28;20233;-78
2023/01/15 16:27:37;;;;;;;1.20;0.60;;;;;5.00;99717.00;;;;10373497;28;20219;-79
2023/01/15 16:32:40;;;;;;;4.43;1.60;;;;;4.90;99709.00;;;;10354869;28;20191;-79
2023/01/15 16:37:46;;;;;;;3.90;1.87;;;;;4.80;99707.00;;;;10394907;28;20170;-79
2023/01/15 16:43:01;;;;;;;3.30;1.37;;;;;4.80;99700.00;;;;10362017;28;20193;-79
2023/01/15 16:48:06;;;;;;;4.90;2.23;;;;;4.80;99702.00;;;;10417863;28;20633;-78
2023/01/15 16:53:30;;;;;;;3.60;1.43;;;;;4.80;99703.00;;;;10418613;28;20201;-78
2023/01/15 16:58:33;;;;;;;3.23;1.70;;;;;4.80;99692.00;;;;10451209;28;20205;-78
2023/01/15 17:03:39;;;;;;;3.70;1.20;;;;;4.80;99685.00;;;;10419390;28;20190;-78
2023/01/15 17:08:47;;;;;;;5.37;1.10;;;;;4.80;99699.00;;;;10433333;28;20841;-79
2023/01/15 17:13:49;;;;;;;1.70;0.80;;;;;4.70;99695.00;;;;10412409;28;20218;-79
2023/01/15 17:18:52;;;;;;;4.20;1.50;;;;;4.70;99694.00;;;;10345263;28;20188;-79
2023/01/15 17:23:55;;;;;;;1.13;1.03;;;;;4.60;99682.00;;;;10359170;28;20222;-79
2023/01/15 17:28:58;;;;;;;1.00;0.90;;;;;4.50;99669.00;;;;10353466;28;20216;-78
2023/01/15 17:34:01;;;;;;;5.63;1.77;;;;;4.40;99641.00;;;;10363178;28;20186;-78
2023/01/15 17:39:04;;;;;;;5.13;2.20;;;;;4.40;99639.00;;;;10377438;28;20697;-79
2023/01/15 17:44:06;;;;;;;5.73;2.57;;;;;4.40;99648.00;;;;10367662;28;20190;-79
2023/01/15 17:49:08;;;;;;;2.77;2.20;;;;;4.50;99634.00;;;;10417673;28;20209;-78
2023/01/15 17:54:10;;;;;;;6.40;3.73;;;;;4.60;99624.00;;;;10416089;28;20218;-78
2023/01/15 18:10:00;;;;;;;3.10;1.40;;;;;4.70;99580.00;;;;10415602;28;20954;-78
2023/01/15 18:15:02;;;;;;;5.23;1.63;;;;;4.70;99571.00;;;;10391504;28;20195;-78
2023/01/15 18:20:05;;;;;;;4.67;1.50;;;;;4.70;99575.00;;;;10416933;28;20194;-78
2023/01/15 18:25:09;;;;;;;5.90;1.87;;;;;4.90;99563.00;;;;10388098;28;20658;-78
2023/01/15 18:30:14;;;;;;;5.60;1.40;;;;;4.90;99556.00;;;;10395234;28;20202;-78
2023/01/15 18:35:17;;;;;;;5.87;1.50;;;;;5.00;99533.00;;;;10399241;28;20523;-78
2023/01/15 18:40:19;;;;;;;6.60;1.30;;;;;5.10;99531.00;;;;10396660;28;20195;-78
2023/01/15 18:50:55;;;;;;;3.53;1.23;;;;;5.00;99515.00;;;;10341118;28;20212;-78
2023/01/15 18:56:04;;;;;;;3.83;1.30;;;;;5.00;99513.00;;;;10357003;28;20250;-78
2023/01/15 19:01:07;;;;;;;3.77;1.17;;;;;5.00;99517.00;;;;10382637;28;20318;-78
2023/01/15 19:06:11;;;;;;;4.87;1.20;;;;;5.00;99524.00;;;;10382389;28;20199;-78
2023/01/15 19:11:13;;;;;;;3.37;1.03;;;;;5.00;99523.00;;;;10380614;28;20234;-78
2023/01/15 19:21:36;;;;;;;4.93;1.77;;;;;4.90;99498.00;;;;10381501;28;20218;-78
2023/01/15 19:26:39;;;;;;;4.90;1.33;;;;;4.80;99490.00;;;;10381419;28;20203;-79
2023/01/15 19:31:40;;;;;;;5.43;1.27;;;;;4.70;99483.00;;;;10380247;28;20734;-78
2023/01/15 19:36:43;;;;;;;3.53;1.37;;;;;4.80;99472.00;;;;10417033;28;20293;-77
2023/01/15 19:52:36;;;;;;;2.53;0.93;;;;;4.90;99447.00;;;;10391046;28;20199;-77
2023/01/15 19:57:40;;;;;;;3.67;1.63;;;;;5.00;99433.00;;;;10379292;28;20565;-78
2023/01/15 20:02:43;;;;;;;6.77;1.40;;;;;5.10;99425.00;;;;10375930;28;20458;-78
2023/01/15 20:07:45;;;;;;;3.37;1.13;;;;;5.10;99416.00;;;;10353551;28;20285;-78
2023/01/15 20:18:09;;;;;;;7.47;1.63;;;;;5.20;99384.00;;;;10394438;28;20191;-78
2023/01/15 20:23:11;;;;;;;3.90;1.70;;;;;5.20;99392.00;;;;10410369;28;20198;-77
2023/01/15 20:28:12;;;;;;;5.30;1.50;;;;;5.20;99377.00;;;;10401541;28;20226;-78
2023/01/15 20:33:14;;;;;;;4.47;1.03;;;;;5.10;99372.00;;;;10378884;28;20191;-78
2023/01/15 20:38:17;;;;;;;2.67;1.03;;;;;5.00;99373.00;;;;10379054;28;20241;-79
2023/01/15 20:54:00;;;;;;;0.87;0.63;;;;;4.80;99338.00;;;;10377364;28;20673;-78
2023/01/15 20:59:02;;;;;;;2.30;0.90;;;;;4.80;99333.00;;;;10358604;28;20305;-78
2023/01/15 21:04:06;;;;;;;3.60;1.23;;;;;4.80;99329.00;;;;10395543;28;20249;-78
2023/01/15 21:09:08;;;;;;;4.07;1.03;;;;;4.80;99319.00;;;;10376707;28;20234;-78
2023/01/15 21:14:10;;;;;;;3.33;0.70;;;;;4.70;99316.00;;;;10386675;28;20222;-78
2023/01/15 21:19:12;;;;;;;2.57;1.47;;;;;4.70;99316.00;;;;10407717;28;20206;-78
2023/01/15 21:24:14;;;;;;;1.57;0.83;;;;;4.70;99316.00;;;;10410547;28;20301;-78
2023/01/15 21:29:15;;;;;;;2.40;1.03;;;;;4.70;99315.00;;;;10377886;28;20298;-78
2023/01/15 21:34:17;;;;;;;3.03;1.00;;;;;4.60;99306.00;;;;10363659;28;20194;-78
2023/01/15 21:39:19;;;;;;;3.00;1.03;;;;;4.60;99297.00;;;;10361559;28;20194;-78
2023/01/15 21:44:31;;;;;;;2.93;1.10;;;;;4.70;99297.00;;;;10376196;28;20199;-78
2023/01/15 21:49:33;;;;;;;1.63;0.93;;;;;4.70;99289.00;;;;10356152;28;20230;-78
2023/01/15 21:54:35;;;;;;;2.40;1.10;;;;;4.70;99287.00;;;;10356738;28;20799;-78
2023/01/15 21:59:39;;;;;;;1.53;0.93;;;;;4.70;99276.00;;;;10344518;28;20278;-78
2023/01/15 22:04:45;;;;;;;2.20;0.83;;;;;4.80;99269.00;;;;10416645;28;20194;-78
2023/01/15 22:09:47;;;;;;;4.33;1.10;;;;;4.80;99288.00;;;;10368469;28;20238;-78
2023/01/15 22:14:49;;;;;;;2.93;0.90;;;;;4.70;99272.00;;;;10396148;28;20214;-78
2023/01/15 22:19:51;;;;;;;1.27;0.73;;;;;4.70;99274.00;;;;10430387;28;20235;-78
2023/01/15 22:24:53;;;;;;;4.33;1.00;;;;;4.80;99279.00;;;;10422860;28;20245;-78
2023/01/15 22:29:55;;;;;;;2.33;0.70;;;;;4.80;99271.00;;;;10404442;28;20227;-78
2023/01/15 22:34:57;;;;;;;3.80;0.90;;;;;4.80;99286.00;;;;10372748;28;20786;-78
2023/01/15 22:39:59;;;;;;;1.40;0.70;;;;;4.70;99266.00;;;;10384393;28;20202;-78
2023/01/15 22:45:02;;;;;;;5.00;0.80;;;;;4.50;99250.00;;;;10430095;28;20199;-78
2023/01/15 22:50:04;;;;;;;3.37;1.27;;;;;4.40;99241.00;;;;10406211;28;20203;-78
2023/01/15 22:55:08;;;;;;;7.60;1.77;;;;;4.30;99225.00;;;;10355107;28;20554;-78
2023/01/15 23:00:10;;;;;;;3.43;0.83;;;;;4.20;99218.00;;;;10359092;28;20229;-78
2023/01/15 23:05:12;;;;;;;5.50;1.13;;;;;4.10;99211.00;;;;10380957;28;20210;-78
2023/01/15 23:10:14;;;;;;;8.67;1.07;;;;;4.10;99202.00;;;;10381215;28;20214;-78
2023/01/15 23:15:16;;;;;;;4.30;1.10;;;;;4.10;99191.00;;;;10406856;28;20186;-78
2023/01/15 23:20:18;;;;;;;1.93;0.70;;;;;4.10;99186.00;;;;10359315;28;20202;-78
2023/01/15 23:25:20;;;;;;;4.33;0.93;;;;;4.10;99170.00;;;;10381947;28;20249;-78
2023/01/15 23:30:22;;;;;;;4.70;1.03;;;;;4.00;99168.00;;;;10397102;28;20203;-78
2023/01/15 23:35:24;;;;;;;1.33;0.60;;;;;4.00;99162.00;;;;10396067;28;20194;-79
2023/01/15 23:40:26;;;;;;;6.13;1.03;;;;;3.90;99153.00;;;;10380347;28;20206;-79
2023/01/15 23:50:49;;;;;;;3.07;1.00;;;;;3.80;99152.00;;;;10420669;28;20546;-78
2023/01/15 23:55:50;;;;;;;5.70;0.90;;;;;3.70;99134.00;;;;10420236;28;20679;-79
